createdAt,value
2018-05-02T06:54:26.507Z,3.40
2018-05-02T06:56:57.668Z,2.92
2018-05-02T06:59:28.565Z,3.20
2018-05-02T07:01:59.564Z,2.75
2018-05-02T07:04:30.119Z,3.40
2018-05-02T07:07:00.407Z,2.40
2018-05-02T07:09:31.784Z,2.70
2018-05-02T07:12:02.613Z,2.75
2018-05-02T07:14:33.181Z,2.90
2018-05-02T07:17:03.772Z,2.90
2018-05-02T07:19:35.453Z,2.92
2018-05-02T07:22:06.550Z,3.37
2018-05-02T07:24:37.934Z,3.42
2018-05-02T07:27:09.322Z,3.40
2018-05-02T07:29:40.287Z,3.30
2018-05-02T07:32:11.201Z,3.50
2018-05-02T07:34:41.558Z,3.90
2018-05-02T07:37:12.146Z,3.83
2018-05-02T07:39:42.418Z,3.62
2018-05-02T07:42:12.811Z,999.90
2018-05-02T08:14:38.201Z,999.90
2018-05-02T08:17:08.834Z,999.90
2018-05-02T08:19:40.225Z,999.90
2018-05-02T08:22:11.142Z,999.90
2018-05-02T08:24:41.475Z,999.90
2018-05-02T09:44:24.587Z,6.05
2018-05-02T09:46:54.868Z,6.60
2018-05-02T09:49:26.642Z,6.70
2018-05-02T09:51:57.356Z,7.40
2018-05-02T09:54:27.921Z,999.90
2018-05-02T09:56:58.513Z,999.90
2018-05-02T09:59:29.865Z,142.55
2018-05-02T10:02:00.450Z,21.80
2018-05-02T10:04:30.935Z,10.10
2018-05-02T10:09:30.576Z,794.47
2018-05-02T10:12:00.814Z,999.90
2018-05-02T10:14:31.406Z,105.82
2018-05-02T10:17:01.646Z,999.90
2018-05-02T10:19:32.318Z,891.87
2018-05-02T10:22:04.038Z,999.90
2018-05-02T10:24:34.806Z,589.13
2018-05-02T10:27:05.556Z,999.90
2018-05-02T10:29:36.717Z,640.80
2018-05-02T10:32:07.788Z,13.32
2018-05-02T10:34:38.332Z,25.05
2018-05-02T10:37:08.610Z,7.60
2018-05-02T10:39:39.347Z,7.50
2018-05-02T10:42:10.160Z,6.95
2018-05-02T10:44:40.406Z,7.37
2018-05-02T10:47:10.915Z,7.32
2018-05-02T10:49:41.147Z,79.30
2018-05-02T10:52:11.862Z,15.73
2018-05-02T10:54:42.434Z,36.80
2018-05-02T10:57:13.282Z,76.47
2018-05-02T10:59:43.891Z,7.60
2018-05-02T11:02:14.467Z,7.82
2018-05-02T11:04:44.998Z,7.45
2018-05-02T11:07:15.902Z,6.57
2018-05-02T11:09:46.539Z,9.60
2018-05-02T11:12:17.132Z,8.07
2018-05-02T11:14:47.379Z,8.25
2018-05-02T11:17:17.929Z,28.65
2018-05-02T11:19:48.918Z,169.50
2018-05-02T11:22:20.316Z,7.50
2018-05-02T11:24:50.639Z,7.22
2018-05-02T11:27:21.624Z,7.05
2018-05-02T11:29:53.549Z,7.15
2018-05-02T11:32:24.803Z,6.78
2018-05-02T11:34:54.981Z,7.30
2018-05-02T11:37:25.439Z,129.82
2018-05-02T12:52:08.327Z,999.90
2018-05-02T12:54:39.038Z,7.18
2018-05-02T12:57:09.316Z,8.23
2018-05-02T12:59:40.639Z,8.65
2018-05-02T13:02:11.314Z,8.00
2018-05-02T13:04:42.086Z,7.70
2018-05-02T13:07:12.601Z,6.82
2018-05-02T13:09:42.879Z,7.20
2018-05-02T13:12:13.900Z,7.60
2018-05-02T13:14:44.818Z,7.25
2018-05-02T13:17:16.030Z,7.83
2018-05-02T13:19:46.246Z,6.93
2018-05-02T13:22:17.103Z,7.50
2018-05-02T13:24:47.636Z,8.20
2018-05-02T13:27:18.413Z,7.40
2018-05-02T13:29:48.763Z,8.20
2018-05-02T13:32:20.063Z,7.93
2018-05-02T13:34:51.698Z,8.00
2018-05-02T13:37:21.997Z,7.75
2018-05-02T13:39:52.278Z,6.97
2018-05-02T13:42:23.130Z,8.13
2018-05-02T13:44:53.773Z,7.00
2018-05-02T13:47:24.158Z,7.70
2018-05-02T13:49:55.179Z,6.90
2018-05-02T13:52:25.781Z,6.80
2018-05-02T13:54:56.011Z,6.95
2018-05-02T13:57:27.620Z,8.27
2018-05-02T13:59:57.867Z,8.50
2018-05-02T14:02:28.558Z,8.27
2018-05-02T14:04:59.746Z,9.02
2018-05-02T14:07:30.067Z,8.00
2018-05-02T14:10:00.285Z,8.40
2018-05-02T14:12:32.277Z,8.70
2018-05-02T14:15:02.505Z,8.32
2018-05-02T14:17:32.687Z,9.07
2018-05-02T14:20:03.630Z,8.10
2018-05-02T14:22:33.842Z,7.28
2018-05-02T14:25:04.134Z,7.85
2018-05-02T14:27:35.109Z,8.40
2018-05-02T14:30:05.815Z,8.82
2018-05-02T14:32:36.983Z,8.30
2018-05-02T14:35:07.507Z,9.07
2018-05-02T14:37:37.768Z,8.88
2018-05-02T14:40:09.215Z,8.90
2018-05-02T14:42:39.878Z,8.90
2018-05-02T14:45:10.444Z,8.48
2018-05-02T14:47:41.894Z,7.68
2018-05-02T14:50:12.133Z,7.95
2018-05-02T14:52:43.091Z,8.27
2018-05-02T14:55:13.993Z,8.30
2018-05-02T14:57:44.602Z,7.60
2018-05-02T15:00:15.190Z,8.37
2018-05-02T15:02:45.720Z,8.10
2018-05-02T15:05:16.963Z,8.45
2018-05-02T15:07:50.719Z,7.70
2018-05-02T15:10:26.185Z,7.67
2018-05-02T15:12:56.806Z,7.50
2018-05-02T15:15:27.387Z,8.30
2018-05-02T15:17:58.567Z,8.32
2018-05-02T15:20:28.875Z,8.30
2018-05-02T15:22:59.580Z,8.17
2018-05-02T15:25:31.643Z,7.40
2018-05-02T15:28:02.418Z,7.43
2018-05-02T15:30:32.799Z,7.57
2018-05-02T15:33:03.509Z,7.68
2018-05-02T15:35:34.557Z,7.43
2018-05-02T15:38:05.425Z,7.45
2018-05-02T15:42:00.859Z,7.68
2018-05-02T15:44:32.334Z,8.85
2018-05-02T15:47:02.706Z,8.70
2018-05-02T15:49:33.598Z,8.48
2018-05-02T15:52:04.140Z,7.95
2018-05-02T15:54:34.480Z,8.10
2018-05-02T15:57:05.231Z,7.10
2018-05-02T15:59:36.614Z,7.93
2018-05-02T16:02:07.003Z,8.60
2018-05-02T16:04:37.608Z,8.00
2018-05-02T16:07:07.970Z,8.75
2018-05-02T16:09:39.033Z,8.63
2018-05-02T16:12:10.455Z,8.15
2018-05-02T16:14:42.257Z,9.52
2018-05-02T16:17:12.975Z,8.38
2018-05-02T16:19:44.419Z,9.00
2018-05-02T16:22:15.703Z,8.50
2018-05-02T16:24:45.967Z,8.75
2018-05-02T16:27:16.575Z,8.40
2018-05-02T16:29:48.128Z,8.03
2018-05-02T16:32:18.466Z,8.10
2018-05-02T16:34:49.203Z,8.40
2018-05-02T16:37:22.314Z,7.57
2018-05-02T16:39:53.033Z,7.30
2018-05-02T16:42:24.588Z,7.25
2018-05-02T16:44:55.535Z,7.30
2018-05-02T16:47:26.391Z,6.50
2018-05-02T16:49:58.137Z,6.80
2018-05-02T16:52:29.443Z,6.10
2018-05-02T16:55:00.259Z,5.80
2018-05-02T16:57:34.121Z,6.43
2018-05-02T17:00:06.115Z,6.15
2018-05-02T17:02:37.385Z,6.10
2018-05-02T17:05:08.078Z,5.28
2018-05-02T17:07:38.406Z,5.80
2018-05-02T17:10:09.988Z,5.63
2018-05-02T17:12:41.488Z,5.40
2018-05-02T17:15:12.373Z,5.30
2018-05-02T17:17:44.525Z,5.20
2018-05-02T17:20:15.352Z,5.40
2018-05-02T17:22:51.392Z,5.90
2018-05-02T17:25:22.024Z,5.80
2018-05-02T17:27:52.296Z,6.12
2018-05-02T17:30:23.187Z,5.68
2018-05-02T17:32:54.690Z,6.05
2018-05-02T17:35:25.137Z,6.85
2018-05-02T17:37:56.389Z,5.80
2018-05-02T17:40:27.331Z,5.75
2018-05-02T17:42:58.411Z,4.80
2018-05-02T17:45:29.115Z,4.95
2018-05-02T17:48:00.523Z,5.70
2018-05-02T17:50:31.947Z,5.10
2018-05-02T17:53:02.731Z,6.03
2018-05-02T17:55:33.400Z,5.30
2018-05-02T17:58:05.341Z,5.37
2018-05-02T18:00:37.909Z,5.30
2018-05-02T18:03:08.940Z,5.50
2018-05-02T18:05:40.308Z,6.20
2018-05-02T18:08:11.827Z,6.10
2018-05-02T18:10:42.140Z,6.22
2018-05-02T18:13:14.070Z,7.00
2018-05-02T18:15:44.461Z,6.65
2018-05-02T18:18:14.776Z,6.60
2018-05-02T18:20:47.281Z,6.30
2018-05-02T18:23:19.814Z,5.50
2018-05-02T18:25:51.657Z,5.75
2018-05-02T18:28:23.478Z,6.32
2018-05-02T18:30:54.160Z,17.08
2018-05-02T18:33:25.718Z,6.30
2018-05-02T18:35:56.681Z,6.28
2018-05-02T18:38:29.677Z,6.00
2018-05-02T18:41:01.555Z,6.22
